createdAt,value
2022-12-27T00:03:10.741Z,100146.06
2022-12-27T00:08:13.345Z,100143.56
2022-12-27T00:13:14.940Z,100136.22
2022-12-27T00:18:16.529Z,100146.53
2022-12-27T00:23:18.359Z,100149.78
2022-12-27T00:28:20.879Z,100143.22
2022-12-27T00:33:22.578Z,100142.34
2022-12-27T00:38:24.223Z,100160.53
2022-12-27T00:43:25.949Z,100165.66
2022-12-27T00:48:27.961Z,100157.22
2022-12-27T00:53:31.360Z,100145.53
2022-12-27T00:58:35.995Z,100167.44
2022-12-27T01:03:41.797Z,100177.44
2022-12-27T01:08:44.744Z,100180.66
2022-12-27T01:13:46.716Z,100175.56
2022-12-27T01:18:49.517Z,100174.63
2022-12-27T01:23:52.246Z,100203.91
2022-12-27T01:28:54.259Z,100198.69
2022-12-27T01:33:58.453Z,100220.38
2022-12-27T01:39:00.763Z,100226.16
2022-12-27T01:44:40.335Z,100225.22
2022-12-27T01:50:07.581Z,100221.03
2022-12-27T01:55:41.423Z,100208.38
2022-12-27T02:00:46.113Z,100215.03
2022-12-27T02:05:48.318Z,100218.38
2022-12-27T02:10:51.116Z,100235.97
2022-12-27T02:15:52.767Z,100246.78
2022-12-27T02:21:18.546Z,100266.94
2022-12-27T02:26:48.222Z,100254.41
2022-12-27T02:32:08.890Z,100264.41
2022-12-27T02:37:13.500Z,100261.72
2022-12-27T02:42:35.886Z,100281.78
2022-12-27T02:47:56.928Z,100279.28
2022-12-27T02:53:30.882Z,100285.09
2022-12-27T02:58:53.925Z,100297.75
2022-12-27T03:04:21.030Z,100331.34
2022-12-27T03:10:19.799Z,100327.19
2022-12-27T03:15:57.327Z,100325.34
2022-12-27T03:21:19.432Z,100332.91
2022-12-27T03:26:23.093Z,100333.59
2022-12-27T03:31:48.922Z,100337.53
2022-12-27T03:37:10.631Z,100360.00
2022-12-27T03:42:38.034Z,100376.59
2022-12-27T03:47:59.824Z,100393.34
2022-12-27T03:53:10.249Z,100400.84
2022-12-27T03:58:11.987Z,100413.41
2022-12-27T04:03:14.161Z,100412.34
2022-12-27T04:08:34.793Z,100426.31
2022-12-27T04:13:54.977Z,100420.25
2022-12-27T04:19:15.220Z,100427.69
2022-12-27T04:24:35.614Z,100414.97
2022-12-27T04:29:55.957Z,100439.25
2022-12-27T04:34:57.596Z,100445.09
2022-12-27T04:40:18.213Z,100472.66
2022-12-27T04:45:38.908Z,100488.47
2022-12-27T04:50:58.769Z,100513.38
2022-12-27T04:56:00.754Z,100525.66
2022-12-27T05:01:23.665Z,100534.56
2022-12-27T05:06:25.467Z,100541.22
2022-12-27T05:11:46.132Z,100535.34
2022-12-27T05:16:47.773Z,100548.81
2022-12-27T05:22:08.011Z,100556.91
2022-12-27T05:27:09.812Z,100567.72
2022-12-27T05:32:13.573Z,100571.97
2022-12-27T05:37:15.577Z,100585.19
2022-12-27T05:42:17.218Z,100596.66
2022-12-27T05:47:18.999Z,100612.66
2022-12-27T05:52:20.871Z,100626.63
2022-12-27T05:57:22.570Z,100607.91
2022-12-27T06:02:24.323Z,100622.78
2022-12-27T06:07:26.233Z,100637.53
2022-12-27T06:12:27.932Z,100648.53
2022-12-27T06:17:29.599Z,100667.88
2022-12-27T06:22:31.228Z,100682.38
2022-12-27T06:27:34.142Z,100709.81
2022-12-27T06:32:35.784Z,100746.41
2022-12-27T06:37:37.400Z,100762.31
2022-12-27T06:42:39.120Z,100770.53
2022-12-27T06:47:40.727Z,100793.31
2022-12-27T06:52:42.342Z,100814.19
2022-12-27T06:57:43.956Z,100823.31
2022-12-27T07:02:45.573Z,100830.34
2022-12-27T07:07:47.377Z,100851.03
2022-12-27T07:12:49.414Z,100866.13
2022-12-27T07:17:51.040Z,100885.94
2022-12-27T07:22:52.676Z,100904.09
2022-12-27T07:27:54.439Z,100911.88
2022-12-27T07:32:56.261Z,100924.97
2022-12-27T07:37:58.075Z,100929.97
2022-12-27T07:42:59.737Z,100940.13
2022-12-27T07:48:01.429Z,100961.06
2022-12-27T07:53:03.222Z,100962.28
2022-12-27T07:58:05.079Z,100978.25
2022-12-27T08:03:06.889Z,100985.41
2022-12-27T08:08:09.359Z,100993.00
2022-12-27T08:13:11.245Z,101018.09
2022-12-27T08:18:13.082Z,101019.78
2022-12-27T08:23:14.787Z,101024.88
2022-12-27T08:28:17.790Z,101032.63
2022-12-27T08:33:20.084Z,101033.53
2022-12-27T08:38:21.950Z,101046.25
2022-12-27T08:43:23.544Z,101051.69
2022-12-27T08:48:25.388Z,101060.88
2022-12-27T08:53:26.974Z,101056.47
2022-12-27T08:58:28.614Z,101070.84
2022-12-27T09:03:30.275Z,101078.28
2022-12-27T09:08:31.900Z,101085.28
2022-12-27T09:13:33.671Z,101103.41
2022-12-27T09:18:41.116Z,101107.56
2022-12-27T09:23:43.575Z,101108.28
2022-12-27T09:28:46.563Z,101123.00
2022-12-27T09:33:48.784Z,101129.44
2022-12-27T09:38:53.034Z,101128.50
2022-12-27T09:44:17.998Z,101126.50
2022-12-27T09:49:51.178Z,101122.69
2022-12-27T09:55:05.396Z,101118.94
2022-12-27T10:00:15.878Z,101104.13
2022-12-27T10:05:22.970Z,101109.50
2022-12-27T10:10:53.988Z,101109.59
2022-12-27T10:16:14.094Z,101114.81
2022-12-27T10:21:23.545Z,101114.31
2022-12-27T10:26:25.890Z,101115.88
2022-12-27T10:31:30.177Z,101117.59
2022-12-27T10:36:32.628Z,101114.31
2022-12-27T10:41:34.181Z,101114.72
2022-12-27T10:46:36.468Z,101120.34
2022-12-27T10:51:41.785Z,101116.84
2022-12-27T10:56:45.305Z,101114.56
2022-12-27T11:02:07.000Z,101110.59
2022-12-27T11:07:18.186Z,101110.66
2022-12-27T11:12:32.220Z,101102.94
2022-12-27T11:17:55.445Z,101095.69
2022-12-27T11:23:04.073Z,101094.41
2022-12-27T11:28:16.577Z,101098.94
2022-12-27T11:33:32.213Z,101097.59
2022-12-27T11:38:36.656Z,101083.34
2022-12-27T11:43:53.287Z,101081.16
2022-12-27T11:48:58.823Z,101075.34
2022-12-27T11:54:06.407Z,101070.56
2022-12-27T11:59:32.904Z,101059.25
2022-12-27T12:05:18.194Z,101044.00
2022-12-27T12:10:25.859Z,101038.63
2022-12-27T12:15:33.765Z,101040.38
2022-12-27T12:20:50.988Z,101044.81
2022-12-27T12:26:06.253Z,101046.38
2022-12-27T12:31:26.643Z,101038.75
2022-12-27T12:36:52.911Z,101036.63
2022-12-27T12:42:30.165Z,101028.41
2022-12-27T12:47:42.888Z,101020.63
2022-12-27T12:53:01.589Z,101035.34
2022-12-27T12:58:36.370Z,101036.81
2022-12-27T13:04:02.478Z,101039.22
2022-12-27T13:09:19.216Z,101035.91
2022-12-27T13:14:42.476Z,101030.78
2022-12-27T13:20:14.091Z,101026.03
2022-12-27T13:26:06.803Z,101025.00
2022-12-27T13:32:00.804Z,101021.00
2022-12-27T13:37:17.611Z,101028.06
2022-12-27T13:42:49.181Z,101019.94
2022-12-27T13:48:12.825Z,101024.41
2022-12-27T13:53:44.980Z,101023.28
2022-12-27T13:58:59.698Z,101030.94
2022-12-27T14:04:27.660Z,101027.53
2022-12-27T14:09:51.117Z,101036.16
2022-12-27T14:14:56.571Z,101047.50
2022-12-27T14:20:07.574Z,101048.06
2022-12-27T14:25:30.970Z,101056.03
2022-12-27T14:30:32.547Z,101064.94
2022-12-27T14:35:55.679Z,101066.31
2022-12-27T14:41:12.340Z,101065.41
2022-12-27T14:46:35.910Z,101069.25
2022-12-27T14:52:08.585Z,101080.69
2022-12-27T14:57:34.066Z,101079.56
2022-12-27T15:02:59.218Z,101088.88
2022-12-27T15:08:16.015Z,101084.91
2022-12-27T15:13:32.661Z,101104.94
2022-12-27T15:19:14.414Z,101102.72
2022-12-27T15:24:53.582Z,101113.06
2022-12-27T15:30:18.276Z,101121.41
2022-12-27T15:35:38.647Z,101120.28
2022-12-27T15:40:55.546Z,101120.56
2022-12-27T15:46:21.496Z,101122.84
2022-12-27T15:51:32.532Z,101117.41
2022-12-27T15:56:49.077Z,101128.88
2022-12-27T16:02:13.455Z,101122.94
2022-12-27T16:07:38.612Z,101134.72
2022-12-27T16:12:40.721Z,101134.78
2022-12-27T16:17:55.692Z,101124.72
2022-12-27T16:23:00.379Z,101134.84
2022-12-27T16:28:15.939Z,101145.72
2022-12-27T16:33:26.591Z,101156.41
2022-12-27T16:38:30.352Z,101157.41
2022-12-27T16:44:07.644Z,101165.44
2022-12-27T16:49:27.236Z,101165.44
2022-12-27T16:54:53.647Z,101154.13
2022-12-27T17:00:24.640Z,101160.56
2022-12-27T17:05:26.981Z,101167.19
2022-12-27T17:10:39.293Z,101167.38
2022-12-27T17:16:19.884Z,101173.34
2022-12-27T17:21:30.408Z,101171.47
2022-12-27T17:27:00.027Z,101164.28
2022-12-27T17:32:04.240Z,101164.16
2022-12-27T17:37:28.032Z,101156.84
2022-12-27T17:43:02.616Z,101146.81
2022-12-27T17:48:25.436Z,101157.09
2022-12-27T17:53:45.736Z,101152.25
2022-12-27T17:58:47.350Z,101154.03
2022-12-27T18:03:50.111Z,101150.03
2022-12-27T18:08:52.070Z,101145.78
2022-12-27T18:13:56.658Z,101137.88
2022-12-27T18:19:00.713Z,101122.81
2022-12-27T18:24:02.432Z,101118.59
2022-12-27T18:29:05.706Z,101106.75
2022-12-27T18:34:25.375Z,101109.22
2022-12-27T18:39:30.114Z,101117.28
2022-12-27T18:44:59.027Z,101123.72
2022-12-27T18:50:02.875Z,101128.94
2022-12-27T18:55:27.565Z,101123.03
2022-12-27T19:00:30.610Z,101120.69
2022-12-27T19:05:32.816Z,101129.47
2022-12-27T19:10:34.897Z,101142.81
2022-12-27T19:15:41.960Z,101145.69
2022-12-27T19:20:54.477Z,101155.31
2022-12-27T19:26:28.995Z,101157.03
2022-12-27T19:31:31.400Z,101168.03
2022-12-27T19:36:38.328Z,101171.63
2022-12-27T19:41:40.054Z,101159.00
2022-12-27T19:46:41.966Z,101180.47
2022-12-27T19:51:44.552Z,101183.66
2022-12-27T19:56:46.514Z,101197.13
2022-12-27T20:01:48.674Z,101204.72
2022-12-27T20:06:50.470Z,101201.59
2022-12-27T20:11:52.377Z,101203.94
2022-12-27T20:16:54.044Z,101203.66
2022-12-27T20:21:55.723Z,101209.09
2022-12-27T20:26:57.327Z,101202.44
2022-12-27T20:31:59.465Z,101213.25
2022-12-27T20:37:01.134Z,101206.72
2022-12-27T20:42:03.418Z,101205.00
2022-12-27T20:47:05.336Z,101206.44
2022-12-27T20:52:06.975Z,101197.16
2022-12-27T20:57:08.737Z,101201.19
2022-12-27T21:02:12.263Z,101210.19
2022-12-27T21:07:14.106Z,101209.25
2022-12-27T21:12:16.149Z,101208.69
2022-12-27T21:17:17.896Z,101203.56
2022-12-27T21:22:19.543Z,101202.47
2022-12-27T21:27:21.607Z,101198.19
2022-12-27T21:32:23.322Z,101200.50
2022-12-27T21:37:25.011Z,101195.31
2022-12-27T21:42:26.651Z,101186.53
2022-12-27T21:47:29.273Z,101181.59
2022-12-27T21:52:30.887Z,101172.81
2022-12-27T21:57:32.595Z,101172.22
2022-12-27T22:02:34.277Z,101177.97
2022-12-27T22:07:36.178Z,101182.56
2022-12-27T22:12:37.995Z,101180.06
2022-12-27T22:17:39.608Z,101174.72
2022-12-27T22:22:41.635Z,101168.69
2022-12-27T22:27:43.248Z,101160.09
2022-12-27T22:32:45.723Z,101165.53
2022-12-27T22:37:47.351Z,101156.84
2022-12-27T22:42:48.952Z,101157.28
2022-12-27T22:47:50.955Z,101149.13
2022-12-27T22:52:52.729Z,101145.28
2022-12-27T22:57:54.562Z,101147.47
2022-12-27T23:02:58.267Z,101142.63
2022-12-27T23:08:04.123Z,101139.47
2022-12-27T23:13:08.568Z,101139.47
2022-12-27T23:18:11.715Z,101137.94
2022-12-27T23:23:13.417Z,101136.03
2022-12-27T23:28:15.238Z,101131.72
2022-12-27T23:33:17.085Z,101127.22
2022-12-27T23:38:18.680Z,101133.31
2022-12-27T23:43:51.190Z,101127.75
2022-12-27T23:48:42.738Z,101114.28
2022-12-27T23:53:44.423Z,101106.53
2022-12-27T23:58:46.538Z,101096.22
